sensor_id;sensor_type;location;lat;lon;timestamp;temperature;humidity
6333;DHT22;3199;49.102;8.856;2023-02-28T00:02:17;-1.00;99.90
6333;DHT22;3199;49.102;8.856;2023-02-28T00:04:43;-1.00;99.90
6333;DHT22;3199;49.102;8.856;2023-02-28T00:07:09;-1.10;99.90
6333;DHT22;3199;49.102;8.856;2023-02-28T00:09:34;-1.10;99.90
6333;DHT22;3199;49.102;8.856;2023-02-28T00:12:00;-1.10;99.90
6333;DHT22;3199;49.102;8.856;2023-02-28T00:14:30;-1.10;99.90
6333;DHT22;3199;49.102;8.856;2023-02-28T00:16:55;-1.10;99.90
6333;DHT22;3199;49.102;8.856;2023-02-28T00:19:21;-1.10;99.90
6333;DHT22;3199;49.102;8.856;2023-02-28T00:21:46;-1.10;99.90
6333;DHT22;3199;49.102;8.856;2023-02-28T00:24:12;-1.10;99.90
6333;DHT22;3199;49.102;8.856;2023-02-28T00:26:37;-1.10;99.90
6333;DHT22;3199;49.102;8.856;2023-02-28T00:29:03;-1.10;99.90
6333;DHT22;3199;49.102;8.856;2023-02-28T00:31:28;-1.20;99.90
6333;DHT22;3199;49.102;8.856;2023-02-28T00:33:54;-1.10;99.90
6333;DHT22;3199;49.102;8.856;2023-02-28T00:36:19;-1.10;99.90
6333;DHT22;3199;49.102;8.856;2023-02-28T00:38:45;-1.10;99.90
6333;DHT22;3199;49.102;8.856;2023-02-28T00:41:10;-1.10;99.90
6333;DHT22;3199;49.102;8.856;2023-02-28T00:43:39;-1.20;99.90
6333;DHT22;3199;49.102;8.856;2023-02-28T00:46:05;-1.10;99.90
6333;DHT22;3199;49.102;8.856;2023-02-28T00:48:31;-1.10;99.90
6333;DHT22;3199;49.102;8.856;2023-02-28T00:50:57;-1.10;99.90
6333;DHT22;3199;49.102;8.856;2023-02-28T00:53:22;-1.20;99.90
6333;DHT22;3199;49.102;8.856;2023-02-28T00:55:49;-1.20;99.90
6333;DHT22;3199;49.102;8.856;2023-02-28T00:58:15;-1.20;99.90
6333;DHT22;3199;49.102;8.856;2023-02-28T01:00:40;-1.20;99.90
6333;DHT22;3199;49.102;8.856;2023-02-28T01:03:06;-1.20;99.90
6333;DHT22;3199;49.102;8.856;2023-02-28T01:05:31;-1.20;99.90
6333;DHT22;3199;49.102;8.856;2023-02-28T01:07:57;-1.20;99.90
6333;DHT22;3199;49.102;8.856;2023-02-28T01:10:22;-1.20;99.90
6333;DHT22;3199;49.102;8.856;2023-02-28T01:12:48;-1.20;99.90
6333;DHT22;3199;49.102;8.856;2023-02-28T01:15:13;-1.20;99.90
6333;DHT22;3199;49.102;8.856;2023-02-28T01:17:39;-1.20;99.90
6333;DHT22;3199;49.102;8.856;2023-02-28T01:20:05;-1.30;99.90
6333;DHT22;3199;49.102;8.856;2023-02-28T01:22:30;-1.30;99.90
6333;DHT22;3199;49.102;8.856;2023-02-28T01:24:56;-1.30;99.90
6333;DHT22;3199;49.102;8.856;2023-02-28T01:27:21;-1.30;99.90
6333;DHT22;3199;49.102;8.856;2023-02-28T01:29:47;-1.30;99.90
6333;DHT22;3199;49.102;8.856;2023-02-28T01:32:12;-1.30;99.90
6333;DHT22;3199;49.102;8.856;2023-02-28T01:34:38;-1.30;99.90
6333;DHT22;3199;49.102;8.856;2023-02-28T01:37:04;-1.30;99.90
6333;DHT22;3199;49.102;8.856;2023-02-28T01:39:29;-1.30;99.90
6333;DHT22;3199;49.102;8.856;2023-02-28T01:41:55;-1.30;99.90
6333;DHT22;3199;49.102;8.856;2023-02-28T01:47:21;-1.30;99.90
6333;DHT22;3199;49.102;8.856;2023-02-28T01:49:48;-1.40;99.90
6333;DHT22;3199;49.102;8.856;2023-02-28T01:52:14;-1.40;99.90
6333;DHT22;3199;49.102;8.856;2023-02-28T01:54:45;-1.40;99.90
6333;DHT22;3199;49.102;8.856;2023-02-28T01:57:17;-1.40;99.90
6333;DHT22;3199;49.102;8.856;2023-02-28T01:59:54;-1.40;99.90
6333;DHT22;3199;49.102;8.856;2023-02-28T02:02:24;-1.40;99.90
6333;DHT22;3199;49.102;8.856;2023-02-28T02:05:08;-1.40;99.90
6333;DHT22;3199;49.102;8.856;2023-02-28T02:07:39;-1.40;99.90
6333;DHT22;3199;49.102;8.856;2023-02-28T02:10:13;-1.40;99.90
6333;DHT22;3199;49.102;8.856;2023-02-28T02:15:56;-1.50;99.90
6333;DHT22;3199;49.102;8.856;2023-02-28T02:24:23;-1.50;99.90
6333;DHT22;3199;49.102;8.856;2023-02-28T02:27:22;-1.50;99.90
6333;DHT22;3199;49.102;8.856;2023-02-28T02:30:29;-1.60;99.90
6333;DHT22;3199;49.102;8.856;2023-02-28T02:36:27;-1.60;99.90
6333;DHT22;3199;49.102;8.856;2023-02-28T02:39:06;-1.60;99.90
6333;DHT22;3199;49.102;8.856;2023-02-28T02:41:53;-1.60;99.90
6333;DHT22;3199;49.102;8.856;2023-02-28T02:46:51;-1.70;99.90
6333;DHT22;3199;49.102;8.856;2023-02-28T02:49:25;-1.70;99.90
6333;DHT22;3199;49.102;8.856;2023-02-28T02:51:53;-1.70;99.90
6333;DHT22;3199;49.102;8.856;2023-02-28T02:54:25;-1.70;99.90
6333;DHT22;3199;49.102;8.856;2023-02-28T02:56:54;-1.70;99.90
6333;DHT22;3199;49.102;8.856;2023-02-28T02:59:22;-1.70;99.90
6333;DHT22;3199;49.102;8.856;2023-02-28T03:01:57;-1.70;99.90
6333;DHT22;3199;49.102;8.856;2023-02-28T03:04:27;-1.80;99.90
6333;DHT22;3199;49.102;8.856;2023-02-28T03:06:56;-1.80;99.90
6333;DHT22;3199;49.102;8.856;2023-02-28T03:09:25;-1.80;99.90
6333;DHT22;3199;49.102;8.856;2023-02-28T03:11:52;-1.80;99.90
6333;DHT22;3199;49.102;8.856;2023-02-28T03:20:27;-1.80;99.90
6333;DHT22;3199;49.102;8.856;2023-02-28T03:25:32;-1.80;99.90
6333;DHT22;3199;49.102;8.856;2023-02-28T03:30:47;-1.80;99.90
6333;DHT22;3199;49.102;8.856;2023-02-28T03:33:24;-1.70;99.90
6333;DHT22;3199;49.102;8.856;2023-02-28T03:36:12;-1.70;99.90
6333;DHT22;3199;49.102;8.856;2023-02-28T03:38:43;-1.70;99.90
6333;DHT22;3199;49.102;8.856;2023-02-28T03:41:17;-1.70;99.90
6333;DHT22;3199;49.102;8.856;2023-02-28T03:43:53;-1.60;99.90
6333;DHT22;3199;49.102;8.856;2023-02-28T03:46:24;-1.60;99.90
6333;DHT22;3199;49.102;8.856;2023-02-28T03:49:11;-1.60;99.90
6333;DHT22;3199;49.102;8.856;2023-02-28T03:51:40;-1.60;99.90
6333;DHT22;3199;49.102;8.856;2023-02-28T03:54:11;-1.60;99.90
6333;DHT22;3199;49.102;8.856;2023-02-28T03:56:42;-1.60;99.90
6333;DHT22;3199;49.102;8.856;2023-02-28T03:59:34;-1.50;99.90
6333;DHT22;3199;49.102;8.856;2023-02-28T04:02:03;-1.50;99.90
6333;DHT22;3199;49.102;8.856;2023-02-28T04:04:28;-1.50;99.90
6333;DHT22;3199;49.102;8.856;2023-02-28T04:07:05;-1.50;99.90
6333;DHT22;3199;49.102;8.856;2023-02-28T04:09:32;-1.40;99.90
6333;DHT22;3199;49.102;8.856;2023-02-28T04:11:57;-1.40;99.90
6333;DHT22;3199;49.102;8.856;2023-02-28T04:14:23;-1.40;99.90
6333;DHT22;3199;49.102;8.856;2023-02-28T04:16:49;-1.40;99.90
6333;DHT22;3199;49.102;8.856;2023-02-28T04:19:16;-1.40;99.90
6333;DHT22;3199;49.102;8.856;2023-02-28T04:21:44;-1.40;99.90
6333;DHT22;3199;49.102;8.856;2023-02-28T04:24:20;-1.40;99.90
6333;DHT22;3199;49.102;8.856;2023-02-28T04:26:48;-1.40;99.90
6333;DHT22;3199;49.102;8.856;2023-02-28T04:29:20;-1.40;99.90
6333;DHT22;3199;49.102;8.856;2023-02-28T04:31:46;-1.30;99.90
6333;DHT22;3199;49.102;8.856;2023-02-28T04:34:12;-1.30;99.90
6333;DHT22;3199;49.102;8.856;2023-02-28T04:36:37;-1.30;99.90
6333;DHT22;3199;49.102;8.856;2023-02-28T04:39:03;-1.30;99.90
6333;DHT22;3199;49.102;8.856;2023-02-28T04:41:29;-1.30;99.90
6333;DHT22;3199;49.102;8.856;2023-02-28T04:43:55;-1.30;99.90
6333;DHT22;3199;49.102;8.856;2023-02-28T04:46:22;-1.30;99.90
6333;DHT22;3199;49.102;8.856;2023-02-28T04:48:47;-1.30;99.90
6333;DHT22;3199;49.102;8.856;2023-02-28T04:51:15;-1.30;99.90
6333;DHT22;3199;49.102;8.856;2023-02-28T04:53:41;-1.30;99.90
6333;DHT22;3199;49.102;8.856;2023-02-28T04:56:09;-1.30;99.90
6333;DHT22;3199;49.102;8.856;2023-02-28T04:58:36;-1.30;99.90
6333;DHT22;3199;49.102;8.856;2023-02-28T05:01:14;-1.30;99.90
6333;DHT22;3199;49.102;8.856;2023-02-28T05:03:42;-1.30;99.90
6333;DHT22;3199;49.102;8.856;2023-02-28T05:06:09;-1.30;99.90
6333;DHT22;3199;49.102;8.856;2023-02-28T05:08:34;-1.20;99.90
6333;DHT22;3199;49.102;8.856;2023-02-28T05:11:01;-1.20;99.90
6333;DHT22;3199;49.102;8.856;2023-02-28T05:13:27;-1.20;99.90
6333;DHT22;3199;49.102;8.856;2023-02-28T05:15:53;-1.20;99.90
6333;DHT22;3199;49.102;8.856;2023-02-28T05:18:18;-1.20;99.90
6333;DHT22;3199;49.102;8.856;2023-02-28T05:20:44;-1.20;99.90
6333;DHT22;3199;49.102;8.856;2023-02-28T05:23:13;-1.20;99.90
6333;DHT22;3199;49.102;8.856;2023-02-28T05:25:40;-1.20;99.90
6333;DHT22;3199;49.102;8.856;2023-02-28T05:28:06;-1.20;99.90
6333;DHT22;3199;49.102;8.856;2023-02-28T05:30:32;-1.20;99.90
6333;DHT22;3199;49.102;8.856;2023-02-28T05:32:58;-1.20;99.90
6333;DHT22;3199;49.102;8.856;2023-02-28T05:35:24;-1.20;99.90
6333;DHT22;3199;49.102;8.856;2023-02-28T05:37:50;-1.20;99.90
6333;DHT22;3199;49.102;8.856;2023-02-28T05:40:16;-1.20;99.90
6333;DHT22;3199;49.102;8.856;2023-02-28T05:42:42;-1.20;99.90
6333;DHT22;3199;49.102;8.856;2023-02-28T05:45:08;-1.20;99.90
6333;DHT22;3199;49.102;8.856;2023-02-28T05:47:35;-1.20;99.90
6333;DHT22;3199;49.102;8.856;2023-02-28T05:50:01;-1.20;99.90
6333;DHT22;3199;49.102;8.856;2023-02-28T05:52:28;-1.20;99.90
6333;DHT22;3199;49.102;8.856;2023-02-28T05:54:55;-1.20;99.90
6333;DHT22;3199;49.102;8.856;2023-02-28T05:57:21;-1.20;99.90
6333;DHT22;3199;49.102;8.856;2023-02-28T05:59:46;-1.20;99.90
6333;DHT22;3199;49.102;8.856;2023-02-28T06:02:13;-1.20;99.90
6333;DHT22;3199;49.102;8.856;2023-02-28T06:04:39;-1.20;99.90
6333;DHT22;3199;49.102;8.856;2023-02-28T06:07:06;-1.20;99.90
6333;DHT22;3199;49.102;8.856;2023-02-28T06:09:32;-1.20;99.90
6333;DHT22;3199;49.102;8.856;2023-02-28T06:12:02;-1.10;99.90
6333;DHT22;3199;49.102;8.856;2023-02-28T06:14:29;-1.10;99.90
6333;DHT22;3199;49.102;8.856;2023-02-28T06:16:56;-1.10;99.90
6333;DHT22;3199;49.102;8.856;2023-02-28T06:19:22;-1.10;99.90
6333;DHT22;3199;49.102;8.856;2023-02-28T06:21:51;-1.10;99.90
6333;DHT22;3199;49.102;8.856;2023-02-28T06:24:18;-1.10;99.90
6333;DHT22;3199;49.102;8.856;2023-02-28T06:26:44;-1.10;99.90
6333;DHT22;3199;49.102;8.856;2023-02-28T06:29:09;-1.10;99.90
6333;DHT22;3199;49.102;8.856;2023-02-28T06:31:35;-1.10;99.90
6333;DHT22;3199;49.102;8.856;2023-02-28T06:34:00;-1.20;99.90
6333;DHT22;3199;49.102;8.856;2023-02-28T06:36:26;-1.20;99.90
6333;DHT22;3199;49.102;8.856;2023-02-28T06:38:51;-1.10;99.90
6333;DHT22;3199;49.102;8.856;2023-02-28T06:41:21;-1.10;99.90
6333;DHT22;3199;49.102;8.856;2023-02-28T06:43:47;-1.10;99.90
6333;DHT22;3199;49.102;8.856;2023-02-28T06:46:14;-1.10;99.90
6333;DHT22;3199;49.102;8.856;2023-02-28T06:48:40;-1.10;99.90
6333;DHT22;3199;49.102;8.856;2023-02-28T06:51:15;-1.10;99.90
6333;DHT22;3199;49.102;8.856;2023-02-28T06:53:41;-1.10;99.90
6333;DHT22;3199;49.102;8.856;2023-02-28T06:56:11;-1.10;99.90
6333;DHT22;3199;49.102;8.856;2023-02-28T06:58:37;-1.00;99.90
6333;DHT22;3199;49.102;8.856;2023-02-28T07:01:03;-1.10;99.90
6333;DHT22;3199;49.102;8.856;2023-02-28T07:03:29;-1.00;99.90
6333;DHT22;3199;49.102;8.856;2023-02-28T07:05:55;-1.00;99.90
6333;DHT22;3199;49.102;8.856;2023-02-28T07:08:25;-1.00;99.90
6333;DHT22;3199;49.102;8.856;2023-02-28T07:10:53;-1.00;99.90
6333;DHT22;3199;49.102;8.856;2023-02-28T07:13:19;-0.90;99.90
6333;DHT22;3199;49.102;8.856;2023-02-28T07:15:44;-0.90;99.90
6333;DHT22;3199;49.102;8.856;2023-02-28T07:18:17;-0.80;99.90
6333;DHT22;3199;49.102;8.856;2023-02-28T07:20:43;-0.90;99.90
6333;DHT22;3199;49.102;8.856;2023-02-28T07:23:08;-0.80;99.90
6333;DHT22;3199;49.102;8.856;2023-02-28T07:25:34;-0.80;99.90
6333;DHT22;3199;49.102;8.856;2023-02-28T07:27:59;-0.80;99.90
6333;DHT22;3199;49.102;8.856;2023-02-28T07:30:25;-0.70;99.90
6333;DHT22;3199;49.102;8.856;2023-02-28T07:32:51;-0.60;99.90
6333;DHT22;3199;49.102;8.856;2023-02-28T07:35:16;-0.60;99.90
6333;DHT22;3199;49.102;8.856;2023-02-28T07:37:42;-0.50;99.90
6333;DHT22;3199;49.102;8.856;2023-02-28T07:40:09;-0.50;99.90
6333;DHT22;3199;49.102;8.856;2023-02-28T07:42:37;-0.30;99.90
6333;DHT22;3199;49.102;8.856;2023-02-28T07:45:03;-0.20;99.90
6333;DHT22;3199;49.102;8.856;2023-02-28T07:47:30;-0.20;99.90
6333;DHT22;3199;49.102;8.856;2023-02-28T07:49:56;-0.20;99.90
6333;DHT22;3199;49.102;8.856;2023-02-28T07:52:22;-0.10;99.90
6333;DHT22;3199;49.102;8.856;2023-02-28T07:54:49;0.10;99.90
6333;DHT22;3199;49.102;8.856;2023-02-28T07:57:15;-0.10;99.90
6333;DHT22;3199;49.102;8.856;2023-02-28T07:59:41;-0.10;99.90
6333;DHT22;3199;49.102;8.856;2023-02-28T08:02:06;0.00;99.90
6333;DHT22;3199;49.102;8.856;2023-02-28T08:04:32;0.10;99.90
6333;DHT22;3199;49.102;8.856;2023-02-28T08:06:58;0.30;99.90
6333;DHT22;3199;49.102;8.856;2023-02-28T08:09:24;0.40;99.90
6333;DHT22;3199;49.102;8.856;2023-02-28T08:11:49;0.40;99.90
6333;DHT22;3199;49.102;8.856;2023-02-28T08:14:15;0.60;99.90
6333;DHT22;3199;49.102;8.856;2023-02-28T08:16:41;0.70;99.90
6333;DHT22;3199;49.102;8.856;2023-02-28T08:19:08;0.80;99.90
6333;DHT22;3199;49.102;8.856;2023-02-28T08:21:34;1.00;99.90
6333;DHT22;3199;49.102;8.856;2023-02-28T08:23:59;1.40;99.90
6333;DHT22;3199;49.102;8.856;2023-02-28T08:26:25;1.60;99.00
6333;DHT22;3199;49.102;8.856;2023-02-28T08:28:51;1.90;98.40
6333;DHT22;3199;49.102;8.856;2023-02-28T08:31:18;2.40;98.20
6333;DHT22;3199;49.102;8.856;2023-02-28T08:33:44;2.70;97.10
6333;DHT22;3199;49.102;8.856;2023-02-28T08:36:11;2.90;95.80
6333;DHT22;3199;49.102;8.856;2023-02-28T08:38:37;3.10;95.40
6333;DHT22;3199;49.102;8.856;2023-02-28T08:41:10;3.40;94.40
6333;DHT22;3199;49.102;8.856;2023-02-28T08:43:37;3.50;93.80
6333;DHT22;3199;49.102;8.856;2023-02-28T08:46:03;3.70;93.30
6333;DHT22;3199;49.102;8.856;2023-02-28T08:48:30;3.90;93.00
6333;DHT22;3199;49.102;8.856;2023-02-28T08:51:02;3.90;92.10
6333;DHT22;3199;49.102;8.856;2023-02-28T08:53:28;4.00;92.10
6333;DHT22;3199;49.102;8.856;2023-02-28T08:56:01;4.10;91.70
6333;DHT22;3199;49.102;8.856;2023-02-28T08:58:28;4.20;91.70
6333;DHT22;3199;49.102;8.856;2023-02-28T09:00:53;4.30;91.10
6333;DHT22;3199;49.102;8.856;2023-02-28T09:03:19;4.10;90.90
6333;DHT22;3199;49.102;8.856;2023-02-28T09:05:57;4.00;90.80
6333;DHT22;3199;49.102;8.856;2023-02-28T09:08:25;3.80;90.90
6333;DHT22;3199;49.102;8.856;2023-02-28T09:10:51;3.80;91.20
6333;DHT22;3199;49.102;8.856;2023-02-28T09:13:17;4.00;91.10
6333;DHT22;3199;49.102;8.856;2023-02-28T09:15:43;4.10;91.20
6333;DHT22;3199;49.102;8.856;2023-02-28T09:18:09;4.20;90.80
6333;DHT22;3199;49.102;8.856;2023-02-28T09:20:37;4.30;90.70
6333;DHT22;3199;49.102;8.856;2023-02-28T09:23:03;4.50;90.20
6333;DHT22;3199;49.102;8.856;2023-02-28T09:25:29;4.60;89.90
6333;DHT22;3199;49.102;8.856;2023-02-28T09:27:54;4.70;90.20
6333;DHT22;3199;49.102;8.856;2023-02-28T09:30:20;4.70;89.10
6333;DHT22;3199;49.102;8.856;2023-02-28T09:32:46;4.70;88.90
6333;DHT22;3199;49.102;8.856;2023-02-28T09:35:17;4.70;88.80
6333;DHT22;3199;49.102;8.856;2023-02-28T09:37:43;4.80;88.70
6333;DHT22;3199;49.102;8.856;2023-02-28T09:40:10;4.90;88.70
6333;DHT22;3199;49.102;8.856;2023-02-28T09:42:36;5.10;87.10
6333;DHT22;3199;49.102;8.856;2023-02-28T09:45:06;4.90;86.10
6333;DHT22;3199;49.102;8.856;2023-02-28T09:47:43;4.80;86.90
6333;DHT22;3199;49.102;8.856;2023-02-28T09:50:30;4.60;85.80
6333;DHT22;3199;49.102;8.856;2023-02-28T09:52:58;4.30;87.80
6333;DHT22;3199;49.102;8.856;2023-02-28T09:55:47;4.10;87.30
6333;DHT22;3199;49.102;8.856;2023-02-28T10:01:31;3.80;88.50
6333;DHT22;3199;49.102;8.856;2023-02-28T10:04:12;3.60;88.20
6333;DHT22;3199;49.102;8.856;2023-02-28T10:06:46;3.30;88.50
6333;DHT22;3199;49.102;8.856;2023-02-28T10:09:17;3.20;88.90
6333;DHT22;3199;49.102;8.856;2023-02-28T10:11:44;3.10;89.80
6333;DHT22;3199;49.102;8.856;2023-02-28T10:14:24;3.00;90.00
6333;DHT22;3199;49.102;8.856;2023-02-28T10:17:10;3.10;90.40
6333;DHT22;3199;49.102;8.856;2023-02-28T10:23:04;3.10;90.20
6333;DHT22;3199;49.102;8.856;2023-02-28T10:25:34;3.20;90.70
6333;DHT22;3199;49.102;8.856;2023-02-28T10:28:14;3.30;90.60
6333;DHT22;3199;49.102;8.856;2023-02-28T10:30:46;3.30;90.40
6333;DHT22;3199;49.102;8.856;2023-02-28T10:33:25;3.30;90.20
6333;DHT22;3199;49.102;8.856;2023-02-28T10:35:53;3.40;90.50
6333;DHT22;3199;49.102;8.856;2023-02-28T10:38:22;3.50;90.60
6333;DHT22;3199;49.102;8.856;2023-02-28T10:40:48;3.60;90.20
6333;DHT22;3199;49.102;8.856;2023-02-28T10:45:40;3.70;89.70
6333;DHT22;3199;49.102;8.856;2023-02-28T10:53:22;4.10;88.10
6333;DHT22;3199;49.102;8.856;2023-02-28T11:01:23;4.00;85.20
6333;DHT22;3199;49.102;8.856;2023-02-28T11:03:50;3.80;85.00
6333;DHT22;3199;49.102;8.856;2023-02-28T11:06:25;3.70;84.90
6333;DHT22;3199;49.102;8.856;2023-02-28T11:08:57;3.60;85.30
6333;DHT22;3199;49.102;8.856;2023-02-28T11:11:25;3.50;86.40
6333;DHT22;3199;49.102;8.856;2023-02-28T11:13:54;3.60;86.80
6333;DHT22;3199;49.102;8.856;2023-02-28T11:16:21;4.00;87.20
6333;DHT22;3199;49.102;8.856;2023-02-28T11:18:52;4.20;85.40
6333;DHT22;3199;49.102;8.856;2023-02-28T11:21:32;4.40;85.20
6333;DHT22;3199;49.102;8.856;2023-02-28T11:24:15;4.70;84.00
6333;DHT22;3199;49.102;8.856;2023-02-28T11:26:47;4.80;82.70
6333;DHT22;3199;49.102;8.856;2023-02-28T11:34:30;4.50;81.50
6333;DHT22;3199;49.102;8.856;2023-02-28T11:36:58;4.40;81.80
6333;DHT22;3199;49.102;8.856;2023-02-28T11:39:25;4.30;82.70
6333;DHT22;3199;49.102;8.856;2023-02-28T11:53:38;4.20;81.70
6333;DHT22;3199;49.102;8.856;2023-02-28T11:59:11;4.20;81.90
6333;DHT22;3199;49.102;8.856;2023-02-28T12:04:49;4.40;81.30
6333;DHT22;3199;49.102;8.856;2023-02-28T12:12:53;4.50;81.80
6333;DHT22;3199;49.102;8.856;2023-02-28T12:18:26;4.50;81.60
6333;DHT22;3199;49.102;8.856;2023-02-28T12:24:00;4.50;81.20
6333;DHT22;3199;49.102;8.856;2023-02-28T12:26:36;4.70;82.10
6333;DHT22;3199;49.102;8.856;2023-02-28T12:29:29;4.70;81.20
6333;DHT22;3199;49.102;8.856;2023-02-28T12:32:00;4.80;80.60
6333;DHT22;3199;49.102;8.856;2023-02-28T12:34:31;4.70;80.20
6333;DHT22;3199;49.102;8.856;2023-02-28T12:37:00;4.70;80.40
6333;DHT22;3199;49.102;8.856;2023-02-28T12:39:31;4.80;81.00
6333;DHT22;3199;49.102;8.856;2023-02-28T12:42:03;4.90;80.80
6333;DHT22;3199;49.102;8.856;2023-02-28T12:44:58;5.10;80.40
6333;DHT22;3199;49.102;8.856;2023-02-28T12:47:24;5.10;80.70
6333;DHT22;3199;49.102;8.856;2023-02-28T12:50:02;5.10;80.10
6333;DHT22;3199;49.102;8.856;2023-02-28T13:01:10;5.50;79.20
6333;DHT22;3199;49.102;8.856;2023-02-28T13:09:05;5.50;78.90
6333;DHT22;3199;49.102;8.856;2023-02-28T13:11:43;5.40;79.10
6333;DHT22;3199;49.102;8.856;2023-02-28T13:16:58;5.30;79.70
6333;DHT22;3199;49.102;8.856;2023-02-28T13:19:30;5.30;80.70
6333;DHT22;3199;49.102;8.856;2023-02-28T13:21:57;5.40;80.40
6333;DHT22;3199;49.102;8.856;2023-02-28T13:24:50;5.40;79.60
6333;DHT22;3199;49.102;8.856;2023-02-28T13:27:39;5.50;79.60
6333;DHT22;3199;49.102;8.856;2023-02-28T13:33:22;5.30;78.70
6333;DHT22;3199;49.102;8.856;2023-02-28T13:36:10;5.10;79.20
6333;DHT22;3199;49.102;8.856;2023-02-28T13:38:38;5.00;79.80
6333;DHT22;3199;49.102;8.856;2023-02-28T13:47:20;5.30;80.20
6333;DHT22;3199;49.102;8.856;2023-02-28T13:52:14;5.50;79.80
6333;DHT22;3199;49.102;8.856;2023-02-28T13:57:52;5.60;78.90
6333;DHT22;3199;49.102;8.856;2023-02-28T14:00:40;5.60;78.80
6333;DHT22;3199;49.102;8.856;2023-02-28T14:06:27;5.70;78.10
6333;DHT22;3199;49.102;8.856;2023-02-28T14:09:02;5.80;78.20
6333;DHT22;3199;49.102;8.856;2023-02-28T14:11:35;5.80;79.10
6333;DHT22;3199;49.102;8.856;2023-02-28T14:14:02;5.70;78.00
6333;DHT22;3199;49.102;8.856;2023-02-28T14:16:40;5.70;77.20
6333;DHT22;3199;49.102;8.856;2023-02-28T14:19:25;5.60;76.90
6333;DHT22;3199;49.102;8.856;2023-02-28T14:22:21;5.50;77.40
6333;DHT22;3199;49.102;8.856;2023-02-28T14:28:04;5.60;78.40
6333;DHT22;3199;49.102;8.856;2023-02-28T14:36:03;5.30;77.90
6333;DHT22;3199;49.102;8.856;2023-02-28T14:38:51;5.40;78.70
6333;DHT22;3199;49.102;8.856;2023-02-28T14:41:37;5.50;78.60
6333;DHT22;3199;49.102;8.856;2023-02-28T14:44:21;5.50;77.80
6333;DHT22;3199;49.102;8.856;2023-02-28T14:46:53;5.40;77.30
6333;DHT22;3199;49.102;8.856;2023-02-28T14:49:24;5.40;77.90
6333;DHT22;3199;49.102;8.856;2023-02-28T14:52:23;5.40;77.90
6333;DHT22;3199;49.102;8.856;2023-02-28T14:54:59;5.30;77.40
6333;DHT22;3199;49.102;8.856;2023-02-28T14:57:34;5.20;77.70
6333;DHT22;3199;49.102;8.856;2023-02-28T15:02:33;5.10;78.70
6333;DHT22;3199;49.102;8.856;2023-02-28T15:05:19;5.10;79.00
6333;DHT22;3199;49.102;8.856;2023-02-28T15:07:48;5.00;78.70
6333;DHT22;3199;49.102;8.856;2023-02-28T15:10:24;5.00;78.50
6333;DHT22;3199;49.102;8.856;2023-02-28T15:13:04;5.00;78.80
6333;DHT22;3199;49.102;8.856;2023-02-28T15:21:01;4.80;80.00
6333;DHT22;3199;49.102;8.856;2023-02-28T15:23:27;4.80;80.50
6333;DHT22;3199;49.102;8.856;2023-02-28T15:25:53;4.80;80.50
6333;DHT22;3199;49.102;8.856;2023-02-28T15:28:22;4.80;80.60
6333;DHT22;3199;49.102;8.856;2023-02-28T15:30:58;4.70;80.10
6333;DHT22;3199;49.102;8.856;2023-02-28T15:33:26;4.70;80.30
6333;DHT22;3199;49.102;8.856;2023-02-28T15:36:10;4.60;80.60
6333;DHT22;3199;49.102;8.856;2023-02-28T15:38:37;4.60;80.50
6333;DHT22;3199;49.102;8.856;2023-02-28T15:41:03;4.60;80.30
6333;DHT22;3199;49.102;8.856;2023-02-28T15:43:35;4.60;80.50
6333;DHT22;3199;49.102;8.856;2023-02-28T15:46:10;4.60;80.80
6333;DHT22;3199;49.102;8.856;2023-02-28T15:48:51;4.50;80.30
6333;DHT22;3199;49.102;8.856;2023-02-28T15:53:59;4.50;80.70
6333;DHT22;3199;49.102;8.856;2023-02-28T15:56:28;4.50;81.00
6333;DHT22;3199;49.102;8.856;2023-02-28T15:59:03;4.50;81.10
6333;DHT22;3199;49.102;8.856;2023-02-28T16:01:38;4.50;81.50
6333;DHT22;3199;49.102;8.856;2023-02-28T16:04:06;4.40;81.80
6333;DHT22;3199;49.102;8.856;2023-02-28T16:06:46;4.40;81.90
6333;DHT22;3199;49.102;8.856;2023-02-28T16:09:16;4.40;82.20
6333;DHT22;3199;49.102;8.856;2023-02-28T16:11:49;4.40;82.20
6333;DHT22;3199;49.102;8.856;2023-02-28T16:14:21;4.40;81.90
6333;DHT22;3199;49.102;8.856;2023-02-28T16:16:54;4.40;82.20
6333;DHT22;3199;49.102;8.856;2023-02-28T16:19:20;4.40;82.30
6333;DHT22;3199;49.102;8.856;2023-02-28T16:21:46;4.30;82.50
6333;DHT22;3199;49.102;8.856;2023-02-28T16:24:12;4.30;82.80
6333;DHT22;3199;49.102;8.856;2023-02-28T16:26:40;4.20;83.00
6333;DHT22;3199;49.102;8.856;2023-02-28T16:29:07;4.10;82.70
6333;DHT22;3199;49.102;8.856;2023-02-28T16:31:37;4.10;83.10
6333;DHT22;3199;49.102;8.856;2023-02-28T16:34:03;4.10;83.40
6333;DHT22;3199;49.102;8.856;2023-02-28T16:36:30;4.10;83.60
6333;DHT22;3199;49.102;8.856;2023-02-28T16:38:55;4.10;84.30
6333;DHT22;3199;49.102;8.856;2023-02-28T16:41:24;4.00;83.70
6333;DHT22;3199;49.102;8.856;2023-02-28T16:43:53;4.00;83.80
6333;DHT22;3199;49.102;8.856;2023-02-28T16:46:20;3.90;84.00
6333;DHT22;3199;49.102;8.856;2023-02-28T16:48:46;3.90;84.20
6333;DHT22;3199;49.102;8.856;2023-02-28T16:51:16;3.80;84.40
6333;DHT22;3199;49.102;8.856;2023-02-28T16:53:43;3.80;84.90
6333;DHT22;3199;49.102;8.856;2023-02-28T16:56:21;3.80;85.00
6333;DHT22;3199;49.102;8.856;2023-02-28T16:58:47;3.70;84.90
6333;DHT22;3199;49.102;8.856;2023-02-28T17:01:14;3.70;84.90
6333;DHT22;3199;49.102;8.856;2023-02-28T17:03:40;3.60;85.30
6333;DHT22;3199;49.102;8.856;2023-02-28T17:06:11;3.60;85.70
6333;DHT22;3199;49.102;8.856;2023-02-28T17:08:41;3.50;86.00
6333;DHT22;3199;49.102;8.856;2023-02-28T17:11:06;3.40;86.30
6333;DHT22;3199;49.102;8.856;2023-02-28T17:13:32;3.40;86.60
6333;DHT22;3199;49.102;8.856;2023-02-28T17:15:59;3.30;86.90
6333;DHT22;3199;49.102;8.856;2023-02-28T17:18:25;3.30;87.20
6333;DHT22;3199;49.102;8.856;2023-02-28T17:20:52;3.30;87.60
6333;DHT22;3199;49.102;8.856;2023-02-28T17:23:17;3.20;87.90
6333;DHT22;3199;49.102;8.856;2023-02-28T17:25:43;3.10;88.30
6333;DHT22;3199;49.102;8.856;2023-02-28T17:28:19;3.10;88.60
6333;DHT22;3199;49.102;8.856;2023-02-28T17:30:44;3.00;88.90
6333;DHT22;3199;49.102;8.856;2023-02-28T17:33:12;3.00;89.30
6333;DHT22;3199;49.102;8.856;2023-02-28T17:35:37;2.90;89.50
6333;DHT22;3199;49.102;8.856;2023-02-28T17:38:03;2.80;89.40
6333;DHT22;3199;49.102;8.856;2023-02-28T17:40:28;2.80;89.60
6333;DHT22;3199;49.102;8.856;2023-02-28T17:42:54;2.70;89.90
6333;DHT22;3199;49.102;8.856;2023-02-28T17:45:22;2.60;90.00
6333;DHT22;3199;49.102;8.856;2023-02-28T17:47:49;2.60;90.10
6333;DHT22;3199;49.102;8.856;2023-02-28T17:50:22;2.50;90.20
6333;DHT22;3199;49.102;8.856;2023-02-28T17:52:48;2.50;90.40
6333;DHT22;3199;49.102;8.856;2023-02-28T17:55:15;2.50;90.50
6333;DHT22;3199;49.102;8.856;2023-02-28T17:57:41;2.40;90.60
6333;DHT22;3199;49.102;8.856;2023-02-28T18:00:07;2.40;90.70
6333;DHT22;3199;49.102;8.856;2023-02-28T18:02:33;2.30;90.80
6333;DHT22;3199;49.102;8.856;2023-02-28T18:04:59;2.30;90.90
6333;DHT22;3199;49.102;8.856;2023-02-28T18:07:25;2.30;91.00
6333;DHT22;3199;49.102;8.856;2023-02-28T18:09:50;2.20;91.10
6333;DHT22;3199;49.102;8.856;2023-02-28T18:12:16;2.20;91.10
6333;DHT22;3199;49.102;8.856;2023-02-28T18:14:41;2.20;91.30
6333;DHT22;3199;49.102;8.856;2023-02-28T18:17:09;2.10;91.30
6333;DHT22;3199;49.102;8.856;2023-02-28T18:19:37;2.10;91.40
6333;DHT22;3199;49.102;8.856;2023-02-28T18:22:04;2.10;91.50
6333;DHT22;3199;49.102;8.856;2023-02-28T18:24:31;2.00;91.60
6333;DHT22;3199;49.102;8.856;2023-02-28T18:26:57;2.00;91.60
6333;DHT22;3199;49.102;8.856;2023-02-28T18:29:25;2.00;91.70
6333;DHT22;3199;49.102;8.856;2023-02-28T18:31:51;1.90;91.80
6333;DHT22;3199;49.102;8.856;2023-02-28T18:34:17;1.90;91.90
6333;DHT22;3199;49.102;8.856;2023-02-28T18:36:43;1.80;91.90
6333;DHT22;3199;49.102;8.856;2023-02-28T18:39:11;1.80;92.00
6333;DHT22;3199;49.102;8.856;2023-02-28T18:41:37;1.80;92.10
6333;DHT22;3199;49.102;8.856;2023-02-28T18:44:03;1.70;92.20